Flight Track Log - Related Links

Times and Time Zones

All times are in EDT time to prevent confusion due to time zone crossing. See the SWA286 flight status page for this flight to view local times or setup timezone preferences in your user account.

Time Position Orientation Groundspeed Altitude Reporting Facility
EDT Latitude Longitude Course Direction KTS MPH feet Rate Location/Type
Fri 05:25:42 PM 39.0833 -76.6000 153° Southeast 223 257 4,300  Level Potomac TRACON
Fri 05:26:36 PM 39.0333 -76.5333 134° Southeast 256 295 6,600 3,130 Climbing Potomac TRACON
Fri 05:27:37 PM 38.9833 -76.4667 134° Southeast 304 350 10,300 2,882 Climbing Potomac TRACON
Fri 05:28:43 PM 38.8833 -76.4333 165° South 334 384 12,700 1,329 Climbing Potomac TRACON
Fri 05:30:00 PM 38.6032 -76.9363 180° South  Level Estimated
Fri 05:30:24 PM 38.7619 -76.5128 207° Southwest 319 367 14,000  Level Washington Center
Fri 05:31:24 PM 38.6925 -76.5811 218° Southwest 318 366 14,300 1,300 Climbing Washington Center
Fri 05:32:24 PM 38.5986 -76.5983 188° South 318 366 16,600 2,550 Climbing Washington Center
Fri 05:33:24 PM 38.4942 -76.6078 184° South 351 404 19,400 2,600 Climbing Washington Center
Fri 05:34:24 PM 38.3836 -76.6167 184° South 382 440 21,800 1,800 Climbing Washington Center
Fri 05:35:24 PM 38.2667 -76.6206 181° South 410 472 23,000 1,200 Climbing Washington Center
Fri 05:36:24 PM 38.1519 -76.6294 183° South 421 484 24,200 1,500 Climbing Washington Center
Fri 05:37:24 PM 38.0372 -76.6411 185° South 421 484 26,000 1,950 Climbing Washington Center
Fri 05:38:24 PM 37.9206 -76.6394 179° South 421 484 28,100 2,050 Climbing Washington Center
Fri 05:39:24 PM 37.7997 -76.6247 175° South 421 484 30,100 1,950 Climbing Washington Center
Fri 05:40:24 PM 37.6831 -76.6072 173° South 421 484 32,000 1,800 Climbing Washington Center
Fri 05:41:24 PM 37.5642 -76.5928 174° South 426 490 33,700 1,636 Climbing Washington Center
Fri 05:42:25 PM 37.4456 -76.5781 174° South 426 490 35,300 1,350 Climbing Washington Center
Fri 05:43:24 PM 37.3183 -76.5606 174° South 426 490 36,400 1,160 Climbing Washington Center
Fri 05:44:24 PM 37.1975 -76.5436 174° South 426 490 37,600 800 Climbing Washington Center
Fri 05:45:24 PM 37.0786 -76.5317 175° South 432 497 38,000 200 Climbing Washington Center
Fri 05:46:24 PM 36.9739 -76.5772 199° South 403 464 38,000  Level Washington Center
Fri 05:47:24 PM 36.8733 -76.6306 203° Southwest 403 464 38,000  Level Washington Center
Fri 05:48:24 PM 36.7686 -76.6808 201° Southwest 403 464 38,000  Level Washington Center
Fri 05:49:24 PM 36.6786 -76.7314 204° Southwest 408 470 38,000  Level Washington Center
Fri 05:50:24 PM 36.5736 -76.7842 202° Southwest 408 470 38,000  Level Washington Center
Fri 05:51:24 PM 36.4689 -76.8369 202° Southwest 408 470 38,000  Level Washington Center
Fri 05:52:24 PM 36.3661 -76.8869 201° Southwest 403 464 38,000  Level Washington Center
Fri 05:53:24 PM 36.2633 -76.9367 201° Southwest 403 464 38,000  Level Washington Center
Fri 05:54:24 PM 36.1606 -76.9889 202° Southwest 403 464 38,000  Level Washington Center
Fri 05:55:24 PM 36.0556 -77.0411 202° Southwest 398 458 38,000  Level Washington Center
Fri 05:56:24 PM 35.9547 -77.0906 202° Southwest 398 458 38,000  Level Washington Center
Fri 05:57:24 PM 35.8561 -77.1400 202° Southwest 392 451 38,000  Level Washington Center
Fri 05:58:24 PM 35.7553 -77.1917 203° Southwest 392 451 38,000  Level Washington Center
Fri 05:59:24 PM 35.6544 -77.2433 203° Southwest 392 451 38,000  Level Washington Center
Fri 06:00:24 PM 35.5514 -77.2922 201° Southwest 397 457 38,000  Level Washington Center
Fri 06:01:24 PM 35.4506 -77.3411 202° Southwest 397 457 38,000  Level Washington Center
Fri 06:02:24 PM 35.3519 -77.3875 201° Southwest 397 457 38,000  Level Washington Center
Fri 06:03:24 PM 35.2489 -77.4386 202° Southwest 397 457 38,000  Level Washington Center
Fri 06:04:24 PM 35.1478 -77.4894 202° Southwest 397 457 38,000  Level Washington Center
Fri 06:05:24 PM 35.0511 -77.5356 201° Southwest 391 450 38,000  Level Washington Center
Fri 06:06:24 PM 34.9481 -77.5864 202° Southwest 396 456 38,000  Level Washington Center
Fri 06:07:24 PM 34.8411 -77.6242 196° South 396 456 38,000  Level Washington Center
Fri 06:08:24 PM 34.7319 -77.6619 196° South 386 444 38,000  Level Washington Center
Fri 06:09:24 PM 34.6311 -77.6997 197° South 386 444 38,000  Level Washington Center
Fri 06:10:25 PM 34.5283 -77.7297 194° South 386 444 38,000  Level Washington Center
Fri 06:11:24 PM 34.4256 -77.7625 195° South 381 438 38,000 435 Level Washington Center
Fri 06:13:52 PM 34.1878 -77.8369 195° South 377 434 39,500 577 Climbing Jacksonville Center
Fri 06:14:52 PM 34.0889 -77.8703 196° South 382 440 40,000 250 Climbing Jacksonville Center
Fri 06:15:52 PM 33.9858 -77.9014 194° South 382 440 40,000  Level Jacksonville Center
Fri 06:16:52 PM 33.8831 -77.9347 195° South 377 434 40,000  Level Jacksonville Center
Fri 06:17:52 PM 33.7778 -77.9681 195° South 383 441 40,000  Level Jacksonville Center
Fri 06:18:52 PM 33.6644 -78.0044 195° South 383 441 40,000  Level Jacksonville Center
Fri 06:19:52 PM 33.5633 -78.0347 194° South 383 441 40,000  Level Jacksonville Center
Fri 06:20:52 PM 33.4603 -78.0653 194° South 383 441 40,000  Level Jacksonville Center
Fri 06:21:52 PM 33.3592 -78.0983 195° South 383 441 40,000 -150 Level Jacksonville Center
Fri 06:22:52 PM 33.2561 -78.1311 195° South 383 441 39,700 -850 Descending Jacksonville Center
Fri 06:23:52 PM 33.1553 -78.1639 195° South 383 441 38,300 -850 Descending Jacksonville Center
Fri 06:24:52 PM 33.0519 -78.1964 195° South 383 441 38,000 -150 Descending Jacksonville Center
Fri 06:25:52 PM 32.9508 -78.2264 194° South 383 441 38,000  Level Jacksonville Center
Fri 06:26:52 PM 32.8456 -78.2592 195° South 383 441 38,000  Level Jacksonville Center
Fri 06:27:52 PM 32.7447 -78.2914 195° South 383 441 38,000  Level Jacksonville Center
Fri 06:28:52 PM 32.6414 -78.3264 196° South 383 441 38,000  Level Jacksonville Center
Fri 06:29:52 PM 32.5403 -78.3536 193° South 383 441 38,000  Level Jacksonville Center
Fri 06:30:52 PM 32.4369 -78.3858 195° South 388 447 38,000  Level Jacksonville Center
Fri 06:31:52 PM 32.3461 -78.4150 195° South 388 447 38,000  Level Jacksonville Center
Fri 06:32:52 PM 32.2431 -78.4494 196° South 388 447 38,000  Level Jacksonville Center
Fri 06:33:52 PM 32.1378 -78.4792 193° South 388 447 38,000  Level Jacksonville Center
Fri 06:34:52 PM 32.0344 -78.5133 196° South 388 447 38,000  Level Jacksonville Center
Fri 06:35:52 PM 31.9269 -78.5456 194° South 395 455 38,000  Level Jacksonville Center
Fri 06:36:52 PM 31.8197 -78.5797 195° South 395 455 38,000  Level Jacksonville Center
Fri 06:37:52 PM 31.7164 -78.6092 194° South 395 455 38,000  Level Jacksonville Center
Fri 06:38:52 PM 31.6089 -78.6408 194° South 400 460 38,000  Level Jacksonville Center
Fri 06:39:52 PM 31.5033 -78.6700 193° South 400 460 38,000  Level Jacksonville Center
Fri 06:40:52 PM 31.3939 -78.7092 197° South 400 460 38,000  Level Jacksonville Center
Fri 06:41:52 PM 31.2825 -78.7433 195° South 400 460 38,000  Level Jacksonville Center
Fri 06:42:52 PM 31.1747 -78.7697 192° South 400 460 38,000  Level Jacksonville Center
Fri 06:43:52 PM 31.0631 -78.8064 196° South 405 466 38,000  Level Jacksonville Center
Fri 06:44:52 PM 30.9453 -78.8428 195° South 408 470 38,000  Level Jacksonville Center
Fri 06:45:52 PM 30.8314 -78.8744 193° South 414 476 38,000  Level Jacksonville Center
Fri 06:46:52 PM 30.7261 -78.9078 195° South 409 471 38,000  Level Jacksonville Center
Fri 06:47:52 PM 30.6206 -78.9386 194° South 410 472 38,000  Level Jacksonville Center
Fri 06:48:31 PM 30.5442 -78.9600 194° South 409 471 38,000  Level Miami Center
Fri 06:49:31 PM 30.4394 -78.9917 195° South 394 453 38,000  Level Miami Center
Fri 06:50:31 PM 30.3283 -79.0375 200° South 407 468 38,000  Level Miami Center
Fri 06:51:31 PM 30.2214 -79.0833 200° South 413 475 38,000  Level Miami Center
Fri 06:52:31 PM 30.1164 -79.1292 201° Southwest 408 470 38,000  Level Miami Center
Fri 06:53:31 PM 30.0114 -79.1725 200° South 413 475 38,000  Level Miami Center
Fri 06:54:31 PM 29.9147 -79.2231 204° Southwest 413 475 38,000  Level Miami Center
Fri 06:55:31 PM 29.8075 -79.2686 200° South 413 475 38,000  Level Miami Center
Fri 06:56:31 PM 29.7006 -79.3139 200° South 413 475 38,000  Level Miami Center
Fri 06:57:31 PM 29.5892 -79.3567 198° South 413 475 38,000  Level Miami Center
Fri 06:58:31 PM 29.4842 -79.4044 202° Southwest 413 475 38,000  Level Miami Center
Fri 06:59:31 PM 29.3808 -79.4544 203° Southwest 413 475 38,000  Level Miami Center
Fri 07:00:31 PM 29.2736 -79.4994 200° South 413 475 38,000  Level Miami Center
Fri 07:01:31 PM 29.1686 -79.5444 201° Southwest 413 475 38,000  Level Miami Center
Fri 07:02:31 PM 29.0614 -79.5892 200° South 413 475 38,000  Level Miami Center
Fri 07:03:31 PM 28.9539 -79.6389 202° Southwest 413 475 38,000  Level Miami Center
Fri 07:04:31 PM 28.8508 -79.6883 203° Southwest 413 475 38,000 -700 Level Miami Center
Fri 07:05:31 PM 28.7842 -79.7883 233° Southwest 394 453 36,600 -1,600 Descending Miami Center
Fri 07:06:31 PM 28.7194 -79.8886 234° Southwest 389 448 34,800 -3,050 Descending Miami Center
Fri 07:07:31 PM 28.6500 -80.0097 237° Southwest 416 479 30,500 -3,550 Descending Miami Center
Fri 07:08:31 PM 28.5911 -80.1261 240° Southwest 426 490 27,700 -2,550 Descending Miami Center
Fri 07:09:31 PM 28.5367 -80.2239 238° Southwest 421 484 25,400 -1,850 Descending Miami Center
Fri 07:10:31 PM 28.4839 -80.3331 241° Southwest 401 461 24,000 -1,000 Descending Miami Center
Fri 07:11:31 PM 28.4394 -80.4453 246° West 371 427 23,400 -750 Descending Miami Center
Fri 07:12:31 PM 28.3972 -80.5475 245° Southwest 362 417 22,500 -1,050 Descending Miami Center
Fri 07:13:31 PM 28.3547 -80.6547 246° West 362 417 21,300 -1,250 Descending Miami Center
Fri 07:14:31 PM 28.3103 -80.7569 244° Southwest 367 422 20,000 -650 Descending Miami Center
Fri 07:15:31 PM 28.2722 -80.8569 247° West 367 422 20,000  Level Miami Center
Fri 07:16:31 PM 28.2317 -80.9617 246° West 362 417 20,000  Level Miami Center
Fri 07:17:31 PM 28.1892 -81.0614 244° Southwest 356 410 20,000  Level Miami Center
Fri 07:18:31 PM 28.1222 -81.1342 224° Southwest 347 399 20,000  Level Miami Center
Fri 07:19:31 PM 28.0233 -81.1656 196° South 347 399 20,000  Level Miami Center
Fri 07:20:31 PM 27.9264 -81.1972 196° South 356 410 20,000 -200 Level Miami Center
Fri 07:21:31 PM 27.8208 -81.2331 197° South 381 438 19,600 -700 Descending Miami Center
Fri 07:22:31 PM 27.7239 -81.2622 195° South 381 438 18,600 -1,600 Descending Miami Center
Fri 07:23:31 PM 27.6314 -81.2892 194° South 364 419 16,400 -2,450 Descending Miami Center
Fri 07:24:31 PM 27.5322 -81.3203 196° South 364 419 13,700 -2,450 Descending Miami Center
Fri 07:25:31 PM 27.4417 -81.3472 195° South 364 419 11,500 -1,650 Descending Miami Center
Fri 07:26:31 PM 27.3406 -81.3783 195° South 351 404 10,400 -750 Descending Miami Center
Fri 07:27:31 PM 27.2583 -81.4056 196° South 338 389 10,000 -200 Descending Miami Center
Fri 07:28:31 PM 27.1844 -81.4283 195° South 319 367 10,000  Level Miami Center
Fri 07:29:31 PM 27.0939 -81.4575 196° South 324 373 10,000  Level Miami Center
Fri 07:30:31 PM 27.0178 -81.4800 195° South 314 361 10,000  Level Miami Center
Fri 07:31:31 PM 26.9322 -81.4814 181° South 286 329 10,000 -250 Level Miami Center
Fri 07:32:31 PM 26.8547 -81.4897 185° South 281 323 9,500 -1,100 Descending Miami Center
Fri 07:33:31 PM 26.7775 -81.4939 183° South 281 323 7,800 -1,750 Descending Miami Center
Fri 07:34:31 PM 26.7106 -81.4981 183° South 275 316 6,000 -1,850 Descending Miami Center
Fri 07:35:31 PM 26.6592 -81.5378 215° Southwest 228 262 4,100 -1,650 Descending Miami Center
Fri 07:36:31 PM 26.6275 -81.6133 245° Southwest 240 276 2,700 -1,000 Descending Miami Center
Fri 07:37:31 PM 26.6008 -81.6564 235° Southwest 219 252 2,100 -600 Descending Miami Center
Fri 07:39:00 PM 26.5333 -81.7500 318° Northwest  Level FlightAware Approximate
Fri 07:46:00 PM 26.5362 -81.7552 318° Northwest  Level Estimated
Fri 07:47:00 PM 26.5333 -81.7500 318° Northwest  Level FlightAware Approximate
Fri 07:48:00 PM 26.5362 -81.7552 318° Northwest  Level Estimated
Fri 07:49:00 PM 26.5333 -81.7500 318° Northwest  Level FlightAware Approximate

Login

Don't have an account? Register now (free) for customized features, flight alerts, and more!